Time;durP1;ratioP1;P1;durP2;ratioP2;P2;SDS_P1;SDS_P2;PMS_P1;PMS_P2;Temp;Humidity;BMP_temperature;BMP_pressure;BME280_temperature;BME280_humidity;BME280_pressure;Samples;Min_cycle;Max_cycle;Signal;HPM_P1;HPM_P2
2022/08/11 00:01:38;;;;;;;2.95;2.63;;;19.50;99.90;;;;;;6309198;28;20574;-68
2022/08/11 00:04:44;;;;;;;6.38;2.50;;;19.50;99.90;;;;;;6310155;28;20294;-68
2022/08/11 00:07:53;;;;;;;2.63;2.53;;;19.50;99.90;;;;;;6310252;28;20290;-68
2022/08/11 00:11:01;;;;;;;2.72;2.30;;;19.50;99.90;;;;;;6310554;28;20270;-68
2022/08/11 00:14:20;;;;;;;3.13;2.30;;;19.40;99.90;;;;;;6310029;28;20299;-69
2022/08/11 00:17:30;;;;;;;5.97;2.25;;;19.30;99.90;;;;;;6310101;28;20452;-69
2022/08/11 00:20:40;;;;;;;5.85;3.00;;;19.40;99.90;;;;;;6311560;28;20266;-69
2022/08/11 00:23:52;;;;;;;6.55;2.33;;;19.40;99.90;;;;;;6315105;28;20298;-68
2022/08/11 00:26:58;;;;;;;2.28;2.28;;;19.40;99.90;;;;;;6315498;28;20266;-68
2022/08/11 00:30:04;;;;;;;4.55;2.63;;;19.50;99.90;;;;;;6314557;28;20558;-69
2022/08/11 00:33:12;;;;;;;3.63;2.13;;;19.50;99.90;;;;;;6314821;28;20298;-68
2022/08/11 00:36:19;;;;;;;5.68;2.30;;;19.50;99.90;;;;;;6315136;28;20450;-67
2022/08/11 00:39:42;;;;;;;2.58;2.38;;;19.60;99.90;;;;;;6314691;28;20299;-68
2022/08/11 00:43:00;;;;;;;2.20;2.00;;;19.60;99.90;;;;;;6314802;28;20342;-67
2022/08/11 00:46:16;;;;;;;2.10;2.00;;;19.50;99.90;;;;;;6314625;28;20303;-68
2022/08/11 00:49:40;;;;;;;1.83;1.80;;;19.50;99.90;;;;;;6314241;28;20295;-68
2022/08/11 00:53:30;;;;;;;5.53;2.03;;;19.60;99.90;;;;;;6314310;28;20319;-68
2022/08/11 00:57:37;;;;;;;4.72;2.00;;;19.60;99.90;;;;;;6271531;28;20270;-68
2022/08/11 01:01:09;;;;;;;2.70;2.13;;;19.60;99.90;;;;;;6313928;28;20538;-68
2022/08/11 01:04:39;;;;;;;2.78;2.58;;;19.50;99.90;;;;;;6314039;28;20293;-68
2022/08/11 01:08:46;;;;;;;2.90;2.20;;;19.40;99.90;;;;;;6313702;28;20294;-69
2022/08/11 01:12:19;;;;;;;2.63;2.33;;;19.40;99.90;;;;;;6314391;28;20263;-68
2022/08/11 01:16:10;;;;;;;6.55;2.33;;;19.40;99.90;;;;;;6312968;28;20585;-69
2022/08/11 01:20:14;;;;;;;2.75;2.55;;;19.30;99.90;;;;;;6310881;28;20290;-68
2022/08/11 01:24:40;;;;;;;5.95;2.97;;;19.30;99.90;;;;;;6313617;28;20298;-67
2022/08/11 01:28:32;;;;;;;6.38;2.55;;;19.20;99.90;;;;;;6291055;28;20295;-68
2022/08/11 01:32:12;;;;;;;6.40;2.90;;;19.20;99.90;;;;;;6273376;28;20454;-68
2022/08/11 01:35:48;;;;;;;4.47;2.67;;;19.20;99.90;;;;;;6312739;28;20294;-68
2022/08/11 01:39:33;;;;;;;3.60;2.72;;;19.10;99.90;;;;;;6312985;28;20290;-69
2022/08/11 01:51:20;;;;;;;4.38;3.38;;;18.90;99.90;;;;;;6231900;28;20274;-69
2022/08/11 01:54:31;;;;;;;3.70;2.85;;;19.00;99.90;;;;;;6312476;28;20298;-68
2022/08/11 01:57:41;;;;;;;4.50;2.30;;;19.00;99.90;;;;;;6312478;28;20594;-68
2022/08/11 02:00:55;;;;;;;5.30;2.42;;;18.90;99.90;;;;;;6313003;28;20278;-68
2022/08/11 02:04:10;;;;;;;3.08;1.90;;;18.90;99.90;;;;;;6312403;28;20299;-68
2022/08/11 02:07:21;;;;;;;3.17;1.90;;;19.00;99.90;;;;;;6312441;28;20267;-68
2022/08/11 02:14:07;;;;;;;2.33;2.15;;;19.00;99.90;;;;;;6312203;28;20293;-69
2022/08/11 02:17:18;;;;;;;2.28;2.10;;;19.00;99.90;;;;;;6311881;28;20271;-69
2022/08/11 02:23:55;;;;;;;2.58;2.20;;;18.80;99.90;;;;;;6312059;28;20318;-67
2022/08/11 02:27:21;;;;;;;4.05;2.50;;;18.80;99.90;;;;;;6312154;28;20270;-69
2022/08/11 02:30:33;;;;;;;5.47;2.10;;;18.80;99.90;;;;;;6312340;28;20271;-68
2022/08/11 02:33:40;;;;;;;2.20;2.10;;;18.80;99.90;;;;;;6312020;28;20294;-67
2022/08/11 02:37:13;;;;;;;2.00;1.90;;;18.70;99.90;;;;;;6312107;28;20318;-69
2022/08/11 02:40:38;;;;;;;2.92;2.67;;;18.70;99.90;;;;;;6311367;28;20278;-68
2022/08/11 02:43:50;;;;;;;2.47;2.13;;;18.80;99.90;;;;;;6310624;28;20298;-68
2022/08/11 02:47:03;;;;;;;2.00;2.00;;;18.70;99.90;;;;;;6286602;28;20279;-69
2022/08/11 02:50:17;;;;;;;2.42;2.22;;;18.60;99.90;;;;;;6285971;28;20271;-69
2022/08/11 02:53:30;;;;;;;2.45;2.25;;;18.60;99.90;;;;;;6286257;28;20295;-68
2022/08/11 02:56:45;;;;;;;2.30;2.10;;;18.60;99.90;;;;;;6286771;28;20294;-68
2022/08/11 02:59:55;;;;;;;2.00;2.00;;;18.50;99.90;;;;;;6268423;28;20295;-69
2022/08/11 03:03:16;;;;;;;2.50;2.40;;;18.50;99.90;;;;;;6282935;28;20611;-69
2022/08/11 03:06:31;;;;;;;2.50;2.40;;;18.50;99.90;;;;;;6286075;28;20271;-68
2022/08/11 03:09:55;;;;;;;2.45;2.28;;;18.50;99.90;;;;;;6285615;28;20300;-68
2022/08/11 03:16:46;;;;;;;2.28;2.10;;;18.50;99.90;;;;;;6261567;28;20307;-68
2022/08/11 03:20:11;;;;;;;2.25;2.20;;;18.50;99.90;;;;;;6265888;28;20295;-68
2022/08/11 03:23:24;;;;;;;2.20;2.10;;;18.50;99.90;;;;;;6285764;28;20295;-68
2022/08/11 03:26:37;;;;;;;2.63;2.22;;;18.50;99.90;;;;;;6285452;28;20270;-68
2022/08/11 03:29:51;;;;;;;2.63;2.13;;;18.50;99.90;;;;;;6285526;28;20286;-68
2022/08/11 03:45:02;;;;;;;3.95;2.28;;;18.40;99.90;;;;;;6294579;28;20302;-68
2022/08/11 03:48:21;;;;;;;2.30;2.20;;;18.40;99.90;;;;;;6310559;28;20302;-68
2022/08/11 03:51:32;;;;;;;2.63;2.53;;;18.40;99.90;;;;;;6310860;28;20267;-68
2022/08/11 03:55:09;;;;;;;2.72;2.53;;;18.40;99.90;;;;;;6310118;28;20299;-69
2022/08/11 03:59:31;;;;;;;2.25;2.17;;;18.40;99.90;;;;;;6315566;28;20294;-68
2022/08/11 04:03:27;;;;;;;3.50;2.30;;;18.40;99.90;;;;;;6214235;28;20319;-68
2022/08/11 04:07:09;;;;;;;2.08;2.00;;;18.50;99.90;;;;;;6214528;28;20588;-68
2022/08/11 04:10:45;;;;;;;2.40;2.35;;;18.50;99.90;;;;;;6213452;28;20285;-68
2022/08/11 04:18:20;;;;;;;4.22;3.25;;;18.40;99.90;;;;;;6213712;28;20301;-69
2022/08/11 04:22:07;;;;;;;2.33;2.25;;;18.50;99.90;;;;;;6214046;28;20277;-67
2022/08/11 04:25:29;;;;;;;2.50;2.30;;;18.50;99.90;;;;;;6213767;28;20296;-68
2022/08/11 04:28:56;;;;;;;5.75;2.45;;;18.40;99.90;;;;;;6213569;28;20293;-68
2022/08/11 04:32:16;;;;;;;2.50;2.30;;;18.40;99.90;;;;;;6226840;28;20271;-68
2022/08/11 04:35:42;;;;;;;2.65;2.30;;;18.50;99.90;;;;;;6313599;28;20438;-68
2022/08/11 04:39:18;;;;;;;2.80;2.50;;;18.50;99.90;;;;;;6314392;28;20294;-68
2022/08/11 04:43:22;;;;;;;2.35;2.30;;;18.50;99.90;;;;;;6313678;28;20270;-68
2022/08/11 04:47:03;;;;;;;2.67;2.58;;;18.50;99.90;;;;;;6314147;28;20302;-68
2022/08/11 05:02:00;;;;;;;4.07;2.70;;;18.60;99.90;;;;;;6314425;28;20269;-69
2022/08/11 05:05:30;;;;;;;2.70;2.55;;;18.60;99.90;;;;;;6313779;28;20589;-69
2022/08/11 05:09:17;;;;;;;2.50;2.30;;;18.70;99.90;;;;;;6312754;28;20302;-69
2022/08/11 05:12:34;;;;;;;2.67;2.67;;;18.70;99.90;;;;;;6313791;28;20263;-69
2022/08/11 05:37:02;;;;;;;2.63;2.50;;;18.90;99.90;;;;;;6308622;28;20282;-69
2022/08/11 05:57:43;;;;;;;3.58;3.00;;;19.20;99.90;;;;;;6313009;28;20294;-68
2022/08/11 06:00:58;;;;;;;2.38;2.28;;;19.20;99.90;;;;;;6312397;28;20298;-69
2022/08/11 06:04:15;;;;;;;2.58;2.30;;;19.30;99.90;;;;;;6310650;28;20461;-68
2022/08/11 06:07:28;;;;;;;2.35;2.25;;;19.30;99.90;;;;;;6312720;28;20267;-68
2022/08/11 06:10:51;;;;;;;2.53;2.40;;;19.30;99.90;;;;;;6311972;28;20294;-68
2022/08/11 06:13:57;;;;;;;3.75;2.38;;;19.40;99.90;;;;;;6311829;28;20360;-68
2022/08/11 06:17:05;;;;;;;4.57;2.30;;;19.60;99.90;;;;;;6312204;28;20294;-69
2022/08/11 06:20:12;;;;;;;5.03;2.28;;;19.70;99.90;;;;;;6312076;28;20594;-69
2022/08/11 06:23:20;;;;;;;2.38;2.08;;;19.80;99.90;;;;;;6305700;28;20302;-68
2022/08/11 06:26:27;;;;;;;2.25;2.08;;;19.90;99.90;;;;;;6312306;28;20271;-69
2022/08/11 06:29:35;;;;;;;2.58;2.30;;;20.00;99.90;;;;;;6311498;28;20294;-69
2022/08/11 06:32:56;;;;;;;2.70;2.17;;;20.20;99.90;;;;;;6312058;28;20270;-69
2022/08/11 06:36:07;;;;;;;3.58;2.45;;;20.40;99.90;;;;;;6311568;28;20470;-69
2022/08/11 06:39:22;;;;;;;2.20;2.10;;;20.50;99.90;;;;;;6311028;28;20602;-68
2022/08/11 06:42:49;;;;;;;2.08;1.98;;;20.60;99.90;;;;;;6311732;28;20263;-69
2022/08/11 06:46:01;;;;;;;5.53;2.30;;;20.80;99.90;;;;;;6310851;28;20307;-68
2022/08/11 06:52:34;;;;;;;2.70;2.47;;;20.90;99.90;;;;;;6310829;28;20440;-67
2022/08/11 07:02:33;;;;;;;4.18;2.20;;;21.30;99.90;;;;;;6311467;28;20274;-69
2022/08/11 07:05:48;;;;;;;3.33;2.72;;;21.40;99.90;;;;;;6310604;28;20302;-69
2022/08/11 07:16:04;;;;;;;3.88;2.50;;;21.70;99.90;;;;;;6310765;28;20294;-69
2022/08/11 07:29:43;;;;;;;3.08;2.40;;;22.20;99.90;;;;;;6309751;28;20601;-68
2022/08/11 07:33:01;;;;;;;2.25;1.95;;;22.30;99.90;;;;;;6310257;28;20286;-68
2022/08/11 07:36:11;;;;;;;2.50;2.10;;;22.30;99.90;;;;;;6310445;28;20302;-69
2022/08/11 07:39:22;;;;;;;2.33;2.13;;;22.30;99.90;;;;;;6310659;28;20307;-69
2022/08/11 07:42:34;;;;;;;4.82;2.20;;;22.40;99.90;;;;;;6310687;28;20268;-68
2022/08/11 07:52:36;;;;;;;2.33;2.10;;;22.60;99.90;;;;;;6310880;28;20275;-68
2022/08/11 07:55:44;;;;;;;6.47;2.40;;;22.70;99.90;;;;;;6310116;28;20298;-68
2022/08/11 08:19:20;;;;;;;2.35;2.15;;;22.70;99.90;;;;;;6309876;28;20299;-70
2022/08/11 08:22:26;;;;;;;2.30;2.10;;;22.70;99.90;;;;;;6309953;28;20286;-69
2022/08/11 08:25:52;;;;;;;2.17;2.08;;;22.70;99.90;;;;;;6309910;28;20298;-69
2022/08/11 08:32:24;;;;;;;4.60;2.30;;;22.80;99.70;;;;;;6310306;28;20270;-69
2022/08/11 08:35:30;;;;;;;2.92;2.40;;;22.80;99.50;;;;;;6310025;28;20458;-69
2022/08/11 08:38:39;;;;;;;2.53;2.20;;;22.80;99.90;;;;;;6309762;28;20589;-69
2022/08/11 08:41:45;;;;;;;5.07;2.47;;;22.70;99.60;;;;;;6311447;28;20262;-69
2022/08/11 08:44:59;;;;;;;4.00;3.50;;;22.70;99.50;;;;;;6314068;28;20298;-69
2022/08/11 08:48:08;;;;;;;5.65;4.40;;;22.70;99.30;;;;;;6314655;28;20400;-69
2022/08/11 08:55:02;;;;;;;6.45;2.33;;;22.70;99.30;;;;;;6314220;28;20475;-68
2022/08/11 08:58:09;;;;;;;4.63;2.13;;;22.80;99.40;;;;;;6313422;28;20270;-68
2022/08/11 09:01:17;;;;;;;2.75;2.05;;;22.80;98.90;;;;;;6313972;28;20294;-68
2022/08/11 09:04:22;;;;;;;2.20;2.10;;;22.90;99.00;;;;;;6313892;28;20294;-68
2022/08/11 09:07:28;;;;;;;2.20;2.00;;;22.90;99.00;;;;;;6314372;28;20273;-68
2022/08/11 09:10:43;;;;;;;5.70;2.28;;;22.90;98.60;;;;;;6312665;28;20302;-68
2022/08/11 09:13:49;;;;;;;7.50;2.78;;;23.00;98.20;;;;;;6313728;28;20601;-68
2022/08/11 09:17:12;;;;;;;2.03;1.83;;;23.10;98.20;;;;;;6314073;28;20270;-68
2022/08/11 09:20:20;;;;;;;2.63;2.10;;;23.10;97.60;;;;;;6313712;28;20298;-68
2022/08/11 09:27:11;;;;;;;4.22;2.20;;;23.10;97.80;;;;;;6313816;28;20270;-69
2022/08/11 09:30:16;;;;;;;2.00;1.90;;;23.20;97.30;;;;;;6313096;28;20298;-69
2022/08/11 09:33:24;;;;;;;2.80;2.08;;;23.20;97.00;;;;;;6312800;28;20274;-69
2022/08/11 09:46:42;;;;;;;2.58;2.03;;;23.50;96.20;;;;;;6313447;28;20303;-68
2022/08/11 09:49:50;;;;;;;4.50;2.28;;;23.50;95.70;;;;;;6312417;28;20328;-69
2022/08/11 09:52:55;;;;;;;11.23;4.07;;;23.60;95.90;;;;;;6312096;28;20299;-69
2022/08/11 09:59:46;;;;;;;2.80;1.88;;;23.60;95.50;;;;;;6312176;28;20602;-69
2022/08/11 10:02:53;;;;;;;3.40;3.17;;;23.70;95.80;;;;;;6312500;28;20271;-68
2022/08/11 10:09:42;;;;;;;3.05;2.10;;;23.80;94.60;;;;;;6310385;28;20302;-69
2022/08/11 10:12:51;;;;;;;3.15;2.08;;;23.80;94.70;;;;;;6312260;28;20271;-68
2022/08/11 10:16:00;;;;;;;3.50;2.22;;;23.80;94.40;;;;;;6311757;28;20298;-67
2022/08/11 10:19:21;;;;;;;2.13;1.90;;;23.80;94.80;;;;;;6311745;28;20294;-68
2022/08/11 10:36:18;;;;;;;3.10;2.83;;;23.90;93.90;;;;;;6311614;28;20602;-69
2022/08/11 10:39:26;;;;;;;2.40;2.28;;;24.10;92.50;;;;;;6310979;28;20294;-68
2022/08/11 10:49:34;;;;;;;2.00;1.90;;;24.10;92.90;;;;;;6289076;28;20598;-68
2022/08/11 10:59:29;;;;;;;2.53;2.00;;;24.40;92.50;;;;;;6310985;28;20579;-68
2022/08/11 11:02:35;;;;;;;2.67;2.10;;;24.40;92.40;;;;;;6310940;28;20589;-68
2022/08/11 11:05:41;;;;;;;2.15;1.80;;;24.40;92.20;;;;;;6310229;28;20295;-68
2022/08/11 11:09:15;;;;;;;3.33;3.13;;;24.50;91.60;;;;;;6310886;28;20298;-69
2022/08/11 11:19:14;;;;;;;1.95;1.80;;;24.70;91.70;;;;;;6310763;28;20290;-68
2022/08/11 11:22:39;;;;;;;1.67;1.67;;;24.70;91.00;;;;;;6311213;28;20309;-68
2022/08/11 11:26:09;;;;;;;4.57;1.70;;;24.80;90.70;;;;;;6310638;28;20290;-69
2022/08/11 11:29:35;;;;;;;1.95;1.77;;;24.70;90.20;;;;;;6310258;28;20294;-69
2022/08/11 11:32:47;;;;;;;2.83;1.98;;;24.90;88.30;;;;;;6310927;28;20275;-68
2022/08/11 11:36:06;;;;;;;1.65;1.55;;;24.90;86.60;;;;;;6310199;28;20291;-69
2022/08/11 11:39:12;;;;;;;1.75;1.67;;;25.00;88.80;;;;;;6310081;28;20298;-69
2022/08/11 11:42:18;;;;;;;2.60;1.50;;;25.10;87.50;;;;;;6310788;28;20614;-69
2022/08/11 11:45:25;;;;;;;5.10;1.50;;;25.10;86.40;;;;;;6310364;28;20299;-69
2022/08/11 11:48:31;;;;;;;4.65;1.45;;;25.20;86.40;;;;;;6310387;28;20266;-68
2022/08/11 11:51:37;;;;;;;4.00;3.13;;;25.30;85.40;;;;;;6310566;28;20274;-69
2022/08/11 11:54:43;;;;;;;2.65;2.50;;;25.40;86.00;;;;;;6310440;28;20294;-68
2022/08/11 12:01:18;;;;;;;1.67;1.58;;;25.50;82.80;;;;;;6309879;28;20322;-68
2022/08/11 12:04:24;;;;;;;1.70;1.60;;;25.50;82.70;;;;;;6310416;28;20298;-68
2022/08/11 12:14:37;;;;;;;1.48;1.48;;;25.60;82.70;;;;;;6309950;28;20295;-69
2022/08/11 12:17:43;;;;;;;1.50;1.50;;;25.60;81.50;;;;;;6313216;28;20442;-69
2022/08/11 12:20:48;;;;;;;1.60;1.50;;;25.60;79.70;;;;;;6314863;28;20298;-69
2022/08/11 12:27:22;;;;;;;3.90;2.10;;;25.80;81.50;;;;;;6315393;28;20466;-69
2022/08/11 12:30:29;;;;;;;1.98;1.88;;;25.80;84.20;;;;;;6314907;28;20299;-69
2022/08/11 12:33:37;;;;;;;3.92;1.77;;;25.80;81.60;;;;;;6314478;28;20278;-68
2022/08/11 12:36:49;;;;;;;3.38;1.60;;;25.90;81.40;;;;;;6315071;28;20279;-69
2022/08/11 12:47:11;;;;;;;1.40;1.40;;;26.00;76.10;;;;;;6265398;28;20275;-68
2022/08/11 12:53:46;;;;;;;1.90;1.50;;;26.00;77.00;;;;;;6264572;28;20300;-69
2022/08/11 13:07:31;;;;;;;1.75;1.25;;;26.10;75.40;;;;;;6265301;28;20272;-69
2022/08/11 13:14:20;;;;;;;1.60;1.60;;;26.30;75.10;;;;;;6264187;28;20619;-69
2022/08/11 13:17:28;;;;;;;1.58;1.58;;;26.30;76.40;;;;;;6264200;28;20477;-68
2022/08/11 13:20:48;;;;;;;5.20;1.83;;;26.30;71.70;;;;;;6263815;28;20296;-69
2022/08/11 13:23:55;;;;;;;3.17;2.08;;;26.80;68.90;;;;;;6263677;28;20295;-68
2022/08/11 13:27:07;;;;;;;5.78;3.38;;;27.40;67.30;;;;;;6264259;28;20267;-68
2022/08/11 13:33:46;;;;;;;2.15;1.70;;;27.00;66.60;;;;;;6263487;28;20579;-69
2022/08/11 13:36:54;;;;;;;5.55;1.77;;;26.70;68.20;;;;;;6263758;28;20272;-69
2022/08/11 13:40:01;;;;;;;1.80;1.70;;;26.70;70.10;;;;;;6263062;28;20304;-68
2022/08/11 13:43:08;;;;;;;10.75;1.98;;;26.60;68.70;;;;;;6283772;28;20282;-68
2022/08/11 13:46:19;;;;;;;3.30;1.48;;;26.60;66.30;;;;;;6307578;28;20306;-69
2022/08/11 13:49:27;;;;;;;2.55;1.45;;;26.70;66.30;;;;;;6313030;28;20298;-68
2022/08/11 13:52:34;;;;;;;3.40;1.50;;;26.70;70.20;;;;;;6313199;28;20279;-68
2022/08/11 13:55:41;;;;;;;1.63;1.50;;;26.70;68.90;;;;;;6312367;28;20290;-69
2022/08/11 13:58:57;;;;;;;1.52;1.17;;;26.70;68.40;;;;;;6312489;28;20291;-69
2022/08/11 14:02:05;;;;;;;5.55;1.40;;;26.70;66.00;;;;;;6313012;28;20449;-69
2022/08/11 14:05:38;;;;;;;2.20;1.60;;;26.70;65.70;;;;;;6312437;28;20444;-68
2022/08/11 14:08:44;;;;;;;1.63;1.63;;;26.70;68.00;;;;;;6311944;28;20290;-69
2022/08/11 14:15:32;;;;;;;3.40;1.63;;;26.70;67.00;;;;;;6312124;28;20318;-69
2022/08/11 14:18:44;;;;;;;1.73;1.35;;;26.70;68.70;;;;;;6312321;28;20271;-69
2022/08/11 14:22:07;;;;;;;1.65;1.55;;;26.70;68.30;;;;;;6312376;28;20566;-68
2022/08/11 14:25:15;;;;;;;2.15;1.48;;;26.80;68.80;;;;;;6312123;28;20570;-69
2022/08/11 14:28:22;;;;;;;2.17;1.30;;;26.80;69.10;;;;;;6311736;28;20270;-70
2022/08/11 14:31:50;;;;;;;3.10;1.52;;;26.80;69.00;;;;;;6312117;28;20274;-68
2022/08/11 14:34:59;;;;;;;2.58;1.60;;;26.70;69.40;;;;;;6311482;28;20397;-69
2022/08/11 14:38:05;;;;;;;2.13;1.60;;;26.70;69.80;;;;;;6312351;28;20270;-70
2022/08/11 14:48:01;;;;;;;4.60;1.92;;;26.70;69.50;;;;;;6311640;28;20271;-69
2022/08/11 14:51:07;;;;;;;1.88;1.52;;;26.50;69.50;;;;;;6310746;28;20294;-70
2022/08/11 14:57:38;;;;;;;4.03;1.58;;;26.60;67.90;;;;;;6311387;28;20270;-70
2022/08/11 15:03:05;;;;;;;1.58;1.58;;;26.60;71.20;;;;;;6310921;28;20303;-70
2022/08/11 15:04:27;;;;;;;1.70;1.65;;;26.70;69.30;;;;;;6310054;28;20294;-70
2022/08/11 15:07:41;;;;;;;4.22;1.65;;;26.70;66.30;;;;;;6311200;28;20446;-70
2022/08/11 15:10:47;;;;;;;4.88;1.70;;;26.60;69.10;;;;;;6310684;28;20307;-70
2022/08/11 15:13:52;;;;;;;1.95;1.45;;;26.70;69.40;;;;;;6309997;28;20290;-69
2022/08/11 15:17:07;;;;;;;2.15;1.50;;;26.60;69.30;;;;;;6310892;28;20531;-70
2022/08/11 15:37:30;;;;;;;1.83;1.70;;;26.50;62.10;;;;;;6310570;28;20271;-71
2022/08/11 15:47:56;;;;;;;1.55;1.45;;;26.40;62.10;;;;;;6278064;28;20271;-69
2022/08/11 15:51:21;;;;;;;1.40;1.40;;;26.40;62.80;;;;;;6284032;28;20291;-69
2022/08/11 15:54:32;;;;;;;1.27;1.27;;;26.40;60.70;;;;;;6285040;28;20302;-70
2022/08/11 16:04:27;;;;;;;1.50;1.50;;;26.40;61.10;;;;;;6284788;28;20299;-68
2022/08/11 16:07:36;;;;;;;2.72;1.40;;;26.30;63.10;;;;;;6285724;28;20271;-67
2022/08/11 16:10:45;;;;;;;4.53;1.85;;;26.30;61.10;;;;;;6285102;28;20295;-70
2022/08/11 16:17:29;;;;;;;1.90;1.70;;;26.20;63.10;;;;;;6260974;28;20290;-69
2022/08/11 16:20:35;;;;;;;3.10;1.63;;;26.10;65.80;;;;;;6284553;28;20307;-69
2022/08/11 16:23:45;;;;;;;2.00;1.50;;;26.00;63.60;;;;;;6284739;28;20303;-69
2022/08/11 16:26:51;;;;;;;2.05;1.40;;;26.00;63.30;;;;;;6285087;28;20271;-69
2022/08/11 16:30:16;;;;;;;2.90;2.70;;;26.00;63.70;;;;;;6284958;28;20299;-69
2022/08/11 16:33:23;;;;;;;3.55;1.60;;;25.90;64.40;;;;;;6284670;28;20295;-69
2022/08/11 16:40:14;;;;;;;5.07;1.60;;;25.90;65.90;;;;;;6284949;28;20469;-70
2022/08/11 16:47:03;;;;;;;2.38;2.10;;;25.80;65.10;;;;;;6310348;28;20298;-70
2022/08/11 16:50:09;;;;;;;2.33;1.70;;;25.70;68.80;;;;;;6309430;28;20620;-69
2022/08/11 16:53:16;;;;;;;6.20;1.60;;;25.70;67.40;;;;;;6309591;28;20482;-69
2022/08/11 16:56:28;;;;;;;1.55;1.50;;;25.70;66.00;;;;;;6309768;28;20365;-69
2022/08/11 16:59:36;;;;;;;3.85;1.60;;;25.70;72.20;;;;;;6309196;28;20593;-69
2022/08/11 17:13:09;;;;;;;1.73;1.52;;;25.50;68.30;;;;;;6313432;28;20275;-69
2022/08/11 17:16:19;;;;;;;5.97;1.95;;;25.40;66.80;;;;;;6314136;28;20278;-69
2022/08/11 17:19:26;;;;;;;1.70;1.60;;;25.30;67.40;;;;;;6313465;28;20433;-69
2022/08/11 17:26:52;;;;;;;4.43;1.60;;;25.30;65.90;;;;;;6313609;28;20295;-69
2022/08/11 17:29:58;;;;;;;4.90;1.70;;;25.30;67.50;;;;;;6312498;28;20295;-69
2022/08/11 17:36:26;;;;;;;3.75;1.70;;;25.20;68.10;;;;;;6313636;28;20534;-69
2022/08/11 17:39:34;;;;;;;6.47;1.65;;;25.10;64.90;;;;;;6312739;28;20298;-70
2022/08/11 17:49:30;;;;;;;5.25;1.40;;;25.00;62.90;;;;;;6312705;28;20294;-69
2022/08/11 17:59:51;;;;;;;3.97;1.48;;;24.90;65.50;;;;;;6260217;28;20295;-70
2022/08/11 18:06:24;;;;;;;6.10;1.67;;;24.80;67.60;;;;;;6312717;28;20286;-69
